Time;durP1;ratioP1;P1;durP2;ratioP2;P2;SDS_P1;SDS_P2;PMS_P1;PMS_P2;Temp;Humidity;BMP_temperature;BMP_pressure;BME280_temperature;BME280_humidity;BME280_pressure;Samples;Min_cycle;Max_cycle;Signal;HPM_P1;HPM_P2
2022/07/01 00:00:26;;;;;;;16.42;14.07;;;;;;;15.50;100.00;101422.75;4955729;28;20621;-62
2022/07/01 00:02:52;;;;;;;16.83;13.35;;;;;;;15.57;100.00;101420.28;4951110;28;20080;-64
2022/07/01 00:05:19;;;;;;;15.20;12.95;;;;;;;15.55;100.00;101422.28;4961411;28;20494;-62
2022/07/01 00:07:47;;;;;;;16.27;12.90;;;;;;;15.53;100.00;101422.44;4939699;28;20137;-62
2022/07/01 00:10:14;;;;;;;16.88;14.88;;;;;;;15.55;100.00;101416.97;4943647;28;20194;-61
2022/07/01 00:12:41;;;;;;;18.33;14.52;;;;;;;15.50;100.00;101417.47;4950749;28;20153;-63
2022/07/01 00:15:09;;;;;;;16.05;14.27;;;;;;;15.52;100.00;101415.47;4943790;28;20061;-63
2022/07/01 00:17:35;;;;;;;15.35;13.55;;;;;;;15.51;100.00;101419.13;4959961;28;20054;-64
2022/07/01 00:20:07;;;;;;;13.63;12.20;;;;;;;15.45;100.00;101418.97;4953450;28;20133;-63
2022/07/01 00:22:34;;;;;;;15.98;12.88;;;;;;;15.37;100.00;101422.44;4960591;28;20050;-62
2022/07/01 00:25:01;;;;;;;15.48;13.70;;;;;;;15.39;100.00;101415.16;4961271;28;20507;-63
2022/07/01 00:27:29;;;;;;;17.08;15.27;;;;;;;15.41;100.00;101421.94;4940060;28;20057;-62
2022/07/01 00:29:55;;;;;;;19.05;14.70;;;;;;;15.41;100.00;101418.47;4951470;28;20506;-63
2022/07/01 00:32:21;;;;;;;17.65;14.05;;;;;;;15.41;100.00;101421.09;4951411;28;20051;-64
2022/07/01 00:34:48;;;;;;;19.10;14.05;;;;;;;15.43;100.00;101419.94;4959163;28;20092;-63
2022/07/01 00:37:14;;;;;;;16.20;14.48;;;;;;;15.51;100.00;101424.41;4936731;28;20141;-61
2022/07/01 00:39:41;;;;;;;16.05;14.18;;;;;;;15.48;100.00;101419.44;4953917;28;20155;-63
2022/07/01 00:42:07;;;;;;;17.83;13.90;;;;;;;15.39;100.00;101428.38;4954205;28;20166;-62
2022/07/01 00:44:34;;;;;;;16.63;14.77;;;;;;;15.43;100.00;101425.22;4942046;28;20369;-64
2022/07/01 00:47:03;;;;;;;18.25;13.95;;;;;;;15.46;100.00;101433.81;4940169;28;20053;-64
2022/07/01 00:49:30;;;;;;;18.42;14.45;;;;;;;15.45;100.00;101432.19;4952696;28;20065;-63
2022/07/01 00:51:57;;;;;;;17.30;14.88;;;;;;;15.46;100.00;101421.44;4960514;28;20534;-62
2022/07/01 00:54:26;;;;;;;16.52;14.07;;;;;;;15.43;100.00;101430.53;4949301;28;20051;-63
2022/07/01 00:56:52;;;;;;;;;;;;;;;15.40;100.00;101436.13;4951812;28;20051;-63
2022/07/01 00:59:19;;;;;;;22.02;17.00;;;;;;;15.28;100.00;101440.06;4959720;28;19926;-64
2022/07/01 01:01:45;;;;;;;20.52;16.38;;;;;;;15.30;100.00;101437.28;4956299;28;20069;-63
2022/07/01 01:04:12;;;;;;;22.40;18.40;;;;;;;15.28;100.00;101441.91;4964598;28;20055;-63
2022/07/01 01:06:39;;;;;;;23.80;18.33;;;;;;;15.22;100.00;101446.00;4964591;28;20474;-63
2022/07/01 01:09:06;;;;;;;24.48;19.00;;;;;;;15.21;100.00;101439.91;4935347;28;20047;-63
2022/07/01 01:11:32;;;;;;;25.65;19.45;;;;;;;15.19;100.00;101439.25;4958723;28;20057;-63
2022/07/01 01:13:59;;;;;;;28.83;20.02;;;;;;;15.12;100.00;101440.84;4944058;28;20524;-63
2022/07/01 01:16:25;;;;;;;27.15;18.85;;;;;;;15.18;100.00;101444.69;4954459;28;20192;-62
2022/07/01 01:18:52;;;;;;;27.88;19.38;;;;;;;15.19;100.00;101441.88;4952921;28;20046;-63
2022/07/01 01:21:19;;;;;;;27.08;20.23;;;;;;;15.22;100.00;101452.13;4959688;28;20756;-64
2022/07/01 01:23:46;;;;;;;28.65;20.63;;;;;;;15.26;100.00;101457.09;4958449;28;20442;-62
2022/07/01 01:26:18;;;;;;;32.45;24.30;;;;;;;15.23;100.00;101464.34;4950928;28;20367;-64
2022/07/01 01:28:45;;;;;;;38.55;25.90;;;;;;;15.18;100.00;101471.91;4964179;28;20295;-64
2022/07/01 01:31:11;;;;;;;35.95;25.50;;;;;;;15.10;100.00;101476.38;4955567;28;20050;-63
2022/07/01 01:33:38;;;;;;;35.97;24.98;;;;;;;15.12;100.00;101483.13;4963739;28;20055;-63
2022/07/01 01:36:06;;;;;;;34.90;24.15;;;;;;;14.99;100.00;101490.69;4953785;28;20047;-63
2022/07/01 01:38:37;;;;;;;33.78;24.95;;;;;;;15.02;100.00;101491.19;4956038;28;20419;-63
2022/07/01 01:41:04;;;;;;;34.58;25.50;;;;;;;15.01;100.00;101486.06;4959842;28;20054;-63
2022/07/01 01:43:34;;;;;;;36.42;26.60;;;;;;;15.01;100.00;101492.19;4954937;28;20510;-63
2022/07/01 01:46:01;;;;;;;36.85;26.42;;;;;;;14.98;100.00;101489.03;4962394;28;20042;-63
2022/07/01 01:48:29;;;;;;;35.42;27.23;;;;;;;15.00;100.00;101482.59;4955197;28;20265;-62
2022/07/01 01:50:56;;;;;;;38.75;27.25;;;;;;;14.96;100.00;101478.63;4961798;28;20065;-63
2022/07/01 01:53:23;;;;;;;39.88;27.45;;;;;;;15.00;100.00;101485.25;4954697;28;20582;-64
2022/07/01 01:55:50;;;;;;;39.00;27.00;;;;;;;15.01;100.00;101489.56;4950583;28;20146;-63
2022/07/01 01:58:16;;;;;;;40.08;27.20;;;;;;;15.04;100.00;101488.41;4956830;28;20051;-63
2022/07/01 02:00:43;;;;;;;40.72;27.90;;;;;;;15.02;100.00;101493.00;4925104;28;20394;-63
2022/07/01 02:03:10;;;;;;;39.95;28.33;;;;;;;15.09;100.00;101491.38;4956661;28;20166;-63
2022/07/01 02:05:37;;;;;;;42.00;28.20;;;;;;;14.96;100.00;101494.47;4955671;28;20682;-62
2022/07/01 02:08:04;;;;;;;43.65;29.67;;;;;;;15.01;100.00;101488.72;4953580;28;20350;-61
2022/07/01 02:10:30;;;;;;;39.38;28.25;;;;;;;15.05;100.00;101486.56;4961230;28;20138;-64
2022/07/01 02:12:57;;;;;;;43.72;29.92;;;;;;;14.97;100.00;101487.38;4947485;28;20442;-63
2022/07/01 02:15:24;;;;;;;40.47;28.27;;;;;;;14.89;100.00;101485.53;4963002;28;20574;-64
2022/07/01 02:17:51;;;;;;;40.08;28.95;;;;;;;14.99;100.00;101480.97;4955562;28;20062;-64
2022/07/01 02:20:17;;;;;;;41.50;28.55;;;;;;;14.97;100.00;101480.25;4959277;28;20050;-63
2022/07/01 02:22:44;;;;;;;41.42;28.48;;;;;;;14.97;100.00;101476.81;4958176;28;20054;-63
2022/07/01 02:25:10;;;;;;;39.95;28.17;;;;;;;14.99;100.00;101482.75;4944273;28;20083;-64
2022/07/01 02:27:38;;;;;;;41.83;29.80;;;;;;;14.88;100.00;101483.03;4960154;28;20444;-64
2022/07/01 02:30:05;;;;;;;39.00;27.23;;;;;;;14.82;100.00;101484.50;4953334;28;20066;-63
2022/07/01 02:32:32;;;;;;;42.50;28.63;;;;;;;14.74;100.00;101495.00;4955082;28;20083;-63
2022/07/01 02:34:58;;;;;;;37.25;26.55;;;;;;;14.81;100.00;101502.16;4950205;28;20047;-62
2022/07/01 02:37:25;;;;;;;39.92;27.90;;;;;;;14.73;100.00;101510.03;4961696;28;20062;-63
2022/07/01 02:39:51;;;;;;;37.20;26.25;;;;;;;14.76;100.00;101517.66;4962824;28;20563;-62
2022/07/01 02:42:25;;;;;;;35.00;26.65;;;;;;;14.80;100.00;101513.72;4953220;28;20059;-63
2022/07/01 02:44:55;;;;;;;33.97;25.33;;;;;;;14.81;100.00;101510.06;4952091;28;20170;-63
2022/07/01 02:47:21;;;;;;;33.28;24.92;;;;;;;14.89;100.00;101508.47;4946645;28;20054;-61
2022/07/01 02:49:48;;;;;;;32.85;25.77;;;;;;;14.79;100.00;101519.16;4956794;28;20059;-63
2022/07/01 02:52:17;;;;;;;38.50;27.08;;;;;;;14.86;100.00;101512.25;4954513;28;20381;-63
2022/07/01 02:54:44;;;;;;;32.78;25.23;;;;;;;14.88;100.00;101510.28;4961465;28;20059;-64
2022/07/01 02:57:10;;;;;;;33.88;24.95;;;;;;;14.91;100.00;101509.13;4962629;28;20357;-63
2022/07/01 02:59:36;;;;;;;34.65;25.17;;;;;;;14.89;100.00;101500.53;4946479;28;20070;-63
2022/07/01 03:02:03;;;;;;;37.22;26.08;;;;;;;14.89;100.00;101495.25;4953723;28;20059;-63
2022/07/01 03:04:30;;;;;;;35.63;25.15;;;;;;;14.82;100.00;101513.56;4953569;28;20069;-63
2022/07/01 03:06:56;;;;;;;33.85;24.83;;;;;;;14.74;100.00;101508.22;4962589;28;20556;-62
2022/07/01 03:09:23;;;;;;;36.42;26.23;;;;;;;14.81;100.00;101517.19;4961647;28;20052;-65
2022/07/01 03:11:50;;;;;;;34.22;23.67;;;;;;;14.81;100.00;101512.72;4954107;28;20057;-63
2022/07/01 03:14:16;;;;;;;32.63;24.98;;;;;;;14.81;100.00;101511.91;4956944;28;20054;-63
2022/07/01 03:16:43;;;;;;;33.88;24.73;;;;;;;14.77;100.00;101521.94;4942555;28;20401;-63
2022/07/01 03:19:09;;;;;;;34.20;24.85;;;;;;;14.73;100.00;101507.41;4952374;28;20113;-63
2022/07/01 03:21:36;;;;;;;35.85;25.67;;;;;;;14.62;100.00;101516.44;4954638;28;20146;-63
2022/07/01 03:24:03;;;;;;;34.85;23.48;;;;;;;14.67;100.00;101523.88;4961579;28;20054;-62
2022/07/01 03:26:29;;;;;;;34.80;24.15;;;;;;;14.62;100.00;101526.13;4962325;28;20042;-63
2022/07/01 03:29:01;;;;;;;34.67;24.38;;;;;;;14.50;100.00;101522.91;4951742;28;20133;-62
2022/07/01 03:31:28;;;;;;;34.00;22.83;;;;;;;14.50;100.00;101530.81;4957942;28;20054;-63
2022/07/01 03:33:54;;;;;;;35.55;24.40;;;;;;;14.41;100.00;101547.59;4956195;28;20173;-63
2022/07/01 03:36:21;;;;;;;34.80;24.48;;;;;;;14.38;100.00;101547.91;4962611;28;20062;-64
2022/07/01 03:38:47;;;;;;;31.70;22.88;;;;;;;14.31;100.00;101539.78;4945278;28;20054;-64
2022/07/01 03:41:13;;;;;;;34.78;23.52;;;;;;;14.27;100.00;101541.06;4956092;28;20702;-63
2022/07/01 03:43:40;;;;;;;38.97;25.10;;;;;;;14.34;100.00;101541.28;4958348;28;20051;-63
2022/07/01 03:46:06;;;;;;;36.65;25.58;;;;;;;14.35;100.00;101535.84;4940469;28;20054;-63
2022/07/01 03:48:33;;;;;;;37.70;24.85;;;;;;;14.46;100.00;101536.56;4961609;28;20053;-65
2022/07/01 03:51:05;;;;;;;36.97;24.27;;;;;;;14.38;100.00;101546.06;4938305;28;20053;-64
2022/07/01 03:56:17;;;;;;;33.80;23.45;;;;;;;14.37;100.00;101560.28;4960728;28;20057;-63
2022/07/01 03:58:43;;;;;;;36.28;24.42;;;;;;;14.44;100.00;101558.69;4945632;28;20371;-63
2022/07/01 04:01:10;;;;;;;33.97;22.50;;;;;;;14.36;100.00;101569.16;4956972;28;20050;-63
2022/07/01 04:03:36;;;;;;;33.15;23.40;;;;;;;14.38;100.00;101576.94;4951798;28;20513;-63
2022/07/01 04:06:03;;;;;;;36.55;24.33;;;;;;;14.34;100.00;101580.84;4943651;28;20086;-63
2022/07/01 04:08:29;;;;;;;35.95;24.42;;;;;;;14.35;100.00;101586.00;4952862;28;20514;-63
2022/07/01 04:10:56;;;;;;;38.25;24.90;;;;;;;14.38;100.00;101583.03;4957555;28;20050;-63
2022/07/01 04:13:23;;;;;;;37.05;24.25;;;;;;;14.41;100.00;101587.19;4954998;28;20089;-63
2022/07/01 04:15:59;;;;;;;39.17;23.95;;;;;;;14.37;100.00;101583.22;4948281;28;20046;-64
2022/07/01 04:18:27;;;;;;;41.50;24.95;;;;;;;14.42;100.00;101594.13;4958780;28;20055;-63
2022/07/01 04:23:40;;;;;;;36.38;24.35;;;;;;;14.38;100.00;101583.03;4960737;28;20059;-62
2022/07/01 04:26:06;;;;;;;40.50;24.30;;;;;;;14.43;100.00;101593.16;4947907;28;20055;-63
2022/07/01 04:28:54;;;;;;;37.25;22.65;;;;;;;14.43;100.00;101591.34;4955935;28;20054;-64
2022/07/01 04:31:21;;;;;;;38.30;22.63;;;;;;;14.44;100.00;101578.94;4952328;28;20484;-63
2022/07/01 04:33:48;;;;;;;38.10;22.50;;;;;;;14.51;100.00;101581.81;4950369;28;20066;-64
2022/07/01 04:36:15;;;;;;;36.43;22.80;;;;;;;14.59;100.00;101587.19;4960460;28;20195;-63
2022/07/01 04:38:42;;;;;;;36.58;22.33;;;;;;;14.61;100.00;101585.22;4952833;28;20085;-64
2022/07/01 04:43:53;;;;;;;33.85;21.92;;;;;;;14.69;100.00;101581.81;4949834;28;20054;-64
2022/07/01 04:46:20;;;;;;;36.65;21.42;;;;;;;14.67;100.00;101586.44;4958606;28;20042;-64
2022/07/01 04:48:46;;;;;;;36.95;23.38;;;;;;;14.62;100.00;101598.28;4960770;28;20082;-64
2022/07/01 04:51:12;;;;;;;34.55;21.92;;;;;;;14.66;100.00;101598.78;4945542;28;20594;-64
2022/07/01 04:53:39;;;;;;;35.08;21.75;;;;;;;14.69;100.00;101602.94;4954633;28;20678;-62
2022/07/01 04:56:05;;;;;;;35.45;22.17;;;;;;;14.66;100.00;101609.34;4945926;28;20453;-64
2022/07/01 04:58:32;;;;;;;36.63;21.27;;;;;;;14.61;100.00;101609.00;4960248;28;20065;-63
2022/07/01 05:00:58;;;;;;;38.70;22.88;;;;;;;14.60;100.00;101615.25;4953540;28;20066;-62
2022/07/01 05:03:25;;;;;;;31.60;21.05;;;;;;;14.62;100.00;101605.34;4958222;28;20054;-64
2022/07/01 05:05:52;;;;;;;30.85;20.23;;;;;;;14.60;100.00;101615.25;4960124;28;20384;-64
2022/07/01 05:08:18;;;;;;;32.03;20.80;;;;;;;14.63;100.00;101609.66;4947119;28;20516;-62
2022/07/01 05:10:45;;;;;;;32.63;20.63;;;;;;;14.63;100.00;101602.56;4956137;28;20058;-63
2022/07/01 05:13:11;;;;;;;33.22;21.13;;;;;;;14.61;100.00;101603.72;4946048;28;20051;-64
2022/07/01 05:15:38;;;;;;;32.75;21.67;;;;;;;14.62;100.00;101608.00;4958968;28;20055;-63
2022/07/01 05:23:36;;;;;;;29.70;19.85;;;;;;;14.74;100.00;101617.34;4951520;28;20833;-63
2022/07/01 05:26:03;;;;;;;29.10;19.65;;;;;;;14.81;100.00;101613.09;4945690;28;20057;-63
2022/07/01 05:28:29;;;;;;;30.00;18.60;;;;;;;14.80;100.00;101614.09;4961048;28;20685;-64
2022/07/01 05:30:56;;;;;;;28.70;17.95;;;;;;;14.85;100.00;101610.16;4953344;28;20050;-64
2022/07/01 05:33:26;;;;;;;31.55;17.80;;;;;;;14.82;100.00;101611.28;4945515;28;20487;-63
2022/07/01 05:35:53;;;;;;;33.65;18.33;;;;;;;14.88;100.00;101615.94;4957123;28;20058;-64
2022/07/01 05:38:19;;;;;;;27.42;17.20;;;;;;;14.82;100.00;101614.75;4947229;28;20051;-64
2022/07/01 05:40:46;;;;;;;33.88;18.65;;;;;;;14.84;100.00;101611.97;4958406;28;20439;-64
2022/07/01 05:43:12;;;;;;;26.85;17.55;;;;;;;14.83;100.00;101612.94;4952683;28;20053;-64
2022/07/01 05:45:39;;;;;;;28.98;17.92;;;;;;;14.89;100.00;101612.31;4962133;28;20066;-64
2022/07/01 05:48:05;;;;;;;29.67;16.95;;;;;;;14.97;100.00;101606.25;4951399;28;20047;-64
2022/07/01 05:50:31;;;;;;;28.20;18.10;;;;;;;14.97;100.00;101615.00;4959064;28;20053;-65
2022/07/01 05:52:58;;;;;;;25.67;17.05;;;;;;;14.91;100.00;101612.16;4957853;28;20541;-64
2022/07/01 05:55:24;;;;;;;27.08;17.02;;;;;;;14.94;100.00;101610.03;4953538;28;20550;-63
2022/07/01 05:57:51;;;;;;;29.08;17.65;;;;;;;15.01;100.00;101589.94;4964041;28;20047;-64
2022/07/01 06:00:18;;;;;;;22.52;15.93;;;;;;;15.00;100.00;101598.03;4954181;28;20058;-65
2022/07/01 06:02:44;;;;;;;26.70;15.15;;;;;;;14.99;100.00;101596.34;4962370;28;20054;-64
2022/07/01 06:05:13;;;;;;;27.52;15.35;;;;;;;14.99;100.00;101599.84;4946165;28;20062;-65
2022/07/01 06:07:41;;;;;;;22.63;14.50;;;;;;;15.02;100.00;101598.69;4948348;28;20053;-64
2022/07/01 06:10:10;;;;;;;25.25;15.23;;;;;;;15.00;100.00;101606.78;4959440;28;20427;-64
2022/07/01 06:12:40;;;;;;;23.42;14.80;;;;;;;15.03;100.00;101610.91;4937754;28;20055;-64
2022/07/01 06:15:09;;;;;;;24.77;16.52;;;;;;;15.06;100.00;101604.50;4963122;28;20483;-63
2022/07/01 06:17:37;;;;;;;25.55;16.42;;;;;;;15.17;100.00;101605.06;4954660;28;20697;-64
2022/07/01 06:20:04;;;;;;;22.48;16.13;;;;;;;15.18;100.00;101606.69;4951147;28;20364;-64
2022/07/01 06:22:32;;;;;;;22.70;15.45;;;;;;;15.22;100.00;101600.09;4957935;28;20043;-64
2022/07/01 06:25:00;;;;;;;29.52;17.25;;;;;;;15.14;100.00;101592.16;4954650;28;20138;-64
2022/07/01 06:27:26;;;;;;;35.33;17.33;;;;;;;15.24;100.00;101594.66;4959481;28;20046;-64
2022/07/01 06:29:53;;;;;;;26.50;16.35;;;;;;;15.29;100.00;101602.13;4954548;28;20309;-64
2022/07/01 06:32:19;;;;;;;26.67;16.67;;;;;;;15.34;100.00;101605.13;4958122;28;20056;-64
2022/07/01 06:34:46;;;;;;;29.15;16.23;;;;;;;15.26;100.00;101603.28;4946106;28;20597;-64
2022/07/01 06:37:13;;;;;;;26.25;16.77;;;;;;;15.35;100.00;101598.88;4958466;28;20046;-65
2022/07/01 06:39:39;;;;;;;30.00;17.60;;;;;;;15.31;100.00;101603.63;4962664;28;20059;-64
2022/07/01 06:42:06;;;;;;;28.25;16.38;;;;;;;15.33;100.00;101611.41;4956028;28;20510;-63
2022/07/01 06:44:32;;;;;;;27.77;16.73;;;;;;;15.31;100.00;101608.06;4962566;28;20058;-65
2022/07/01 06:46:59;;;;;;;31.65;18.85;;;;;;;15.26;100.00;101619.13;4954492;28;20077;-64
2022/07/01 06:49:25;;;;;;;27.85;16.23;;;;;;;15.28;100.00;101619.78;4956552;28;20051;-64
2022/07/01 06:51:52;;;;;;;26.27;16.95;;;;;;;15.26;100.00;101618.31;4956378;28;20043;-61
2022/07/01 06:54:18;;;;;;;28.75;18.17;;;;;;;15.34;100.00;101618.34;4952682;28;20617;-65
2022/07/01 06:56:45;;;;;;;31.95;16.40;;;;;;;15.33;100.00;101619.34;4960547;28;20054;-62
2022/07/01 06:59:11;;;;;;;28.58;17.25;;;;;;;15.37;100.00;101621.50;4941596;28;20055;-63
2022/07/01 07:01:38;;;;;;;28.55;17.77;;;;;;;15.42;100.00;101621.84;4959662;28;20501;-64
2022/07/01 07:04:04;;;;;;;26.55;16.38;;;;;;;15.39;100.00;101632.75;4948943;28;20543;-64
2022/07/01 07:06:31;;;;;;;28.15;16.58;;;;;;;15.33;100.00;101638.66;4960656;28;20463;-64
2022/07/01 07:08:57;;;;;;;24.75;15.82;;;;;;;15.31;100.00;101640.63;4962084;28;20376;-64
2022/07/01 07:11:24;;;;;;;28.08;16.27;;;;;;;15.33;100.00;101645.78;4953220;28;20101;-64
2022/07/01 07:13:51;;;;;;;24.13;14.75;;;;;;;15.41;100.00;101638.69;4957379;28;20058;-66
2022/07/01 07:16:20;;;;;;;25.83;16.23;;;;;;;15.51;100.00;101646.50;4948503;28;20070;-64
2022/07/01 07:18:51;;;;;;;26.42;16.05;;;;;;;15.48;100.00;101646.81;4949998;28;20046;-64
2022/07/01 07:21:17;;;;;;;21.50;14.88;;;;;;;15.47;100.00;101639.06;4952543;28;20419;-64
2022/07/01 07:23:43;;;;;;;26.95;16.02;;;;;;;15.60;100.00;101640.28;4946343;28;20058;-64
2022/07/01 07:26:11;;;;;;;25.52;15.65;;;;;;;15.62;100.00;101643.59;4957901;28;20050;-64
2022/07/01 07:28:37;;;;;;;24.52;15.70;;;;;;;15.69;100.00;101638.47;4949383;28;20086;-64
2022/07/01 07:31:04;;;;;;;24.45;15.70;;;;;;;15.73;100.00;101639.84;4957271;28;20491;-64
2022/07/01 07:33:30;;;;;;;22.60;15.43;;;;;;;15.78;100.00;101658.72;4938845;28;20142;-64
2022/07/01 07:35:57;;;;;;;27.33;16.65;;;;;;;15.80;100.00;101651.44;4961242;28;20525;-64
2022/07/01 07:38:23;;;;;;;25.48;16.23;;;;;;;15.91;100.00;101647.66;4960570;28;20046;-64
2022/07/01 07:40:50;;;;;;;24.15;15.98;;;;;;;15.95;100.00;101653.47;4953242;28;20054;-64
2022/07/01 07:43:17;;;;;;;25.98;14.40;;;;;;;16.05;100.00;101648.03;4944455;28;20057;-64
2022/07/01 07:45:43;;;;;;;25.38;15.52;;;;;;;16.14;100.00;101653.19;4945485;28;20189;-64
2022/07/01 07:48:10;;;;;;;23.95;16.23;;;;;;;16.29;100.00;101661.31;4956120;28;20583;-64
2022/07/01 07:50:36;;;;;;;25.23;15.82;;;;;;;16.42;100.00;101666.13;4958576;28;20081;-64
2022/07/01 07:53:03;;;;;;;22.45;15.07;;;;;;;16.47;100.00;101665.66;4945875;28;20054;-64
2022/07/01 07:55:29;;;;;;;21.23;15.60;;;;;;;16.60;100.00;101661.50;4961379;28;20062;-64
2022/07/01 07:57:56;;;;;;;19.73;13.65;;;;;;;16.66;100.00;101661.81;4952930;28;20500;-64
2022/07/01 08:00:22;;;;;;;19.00;13.57;;;;;;;16.59;100.00;101661.66;4948726;28;20551;-64
2022/07/01 08:02:49;;;;;;;21.95;15.10;;;;;;;16.61;100.00;101659.69;4953866;28;20496;-63
2022/07/01 08:05:15;;;;;;;17.73;13.18;;;;;;;16.58;100.00;101662.66;4957024;28;20043;-64
2022/07/01 08:07:43;;;;;;;18.70;12.18;;;;;;;16.60;100.00;101669.44;4961289;28;20058;-64
2022/07/01 08:10:12;;;;;;;20.23;12.30;;;;;;;16.69;100.00;101659.66;4952480;28;20061;-64
2022/07/01 08:12:39;;;;;;;20.50;12.80;;;;;;;16.68;100.00;101670.44;4958334;28;20062;-64
2022/07/01 08:15:06;;;;;;;20.67;12.20;;;;;;;16.89;100.00;101668.13;4943749;28;20054;-63
2022/07/01 08:17:32;;;;;;;16.67;12.18;;;;;;;16.86;100.00;101670.31;4958333;28;20070;-64
2022/07/01 08:19:59;;;;;;;17.98;10.52;;;;;;;16.90;100.00;101675.09;4959871;28;20098;-63
2022/07/01 08:22:26;;;;;;;17.08;9.95;;;;;;;16.95;100.00;101685.19;4946992;28;20567;-63
2022/07/01 08:24:52;;;;;;;14.60;10.43;;;;;;;16.92;100.00;101683.72;4956209;28;20065;-63
2022/07/01 08:27:19;;;;;;;17.88;11.35;;;;;;;16.93;100.00;101676.56;4947551;28;20694;-63
2022/07/01 08:29:45;;;;;;;13.63;9.57;;;;;;;16.97;100.00;101684.03;4957400;28;20047;-63
2022/07/01 08:32:11;;;;;;;15.30;9.48;;;;;;;17.16;100.00;101689.97;4952846;28;20105;-63
2022/07/01 08:34:38;;;;;;;15.40;8.90;;;;;;;17.30;100.00;101683.97;4959862;28;20055;-63
2022/07/01 08:37:05;;;;;;;16.37;8.93;;;;;;;17.48;100.00;101698.84;4961179;28;20490;-63
2022/07/01 08:39:32;;;;;;;11.77;7.80;;;;;;;17.62;100.00;101702.59;4949054;28;20482;-63
2022/07/01 08:41:58;;;;;;;13.15;7.28;;;;;;;17.72;100.00;101697.91;4955620;28;20081;-62
2022/07/01 08:44:26;;;;;;;9.43;6.20;;;;;;;17.79;100.00;101701.53;4949982;28;20053;-63
2022/07/01 08:46:52;;;;;;;11.18;5.45;;;;;;;17.82;100.00;101703.00;4958733;28;20453;-65
2022/07/01 08:49:21;;;;;;;9.00;5.07;;;;;;;18.19;100.00;101718.31;4952155;28;20073;-62
2022/07/01 08:51:48;;;;;;;11.95;5.00;;;;;;;18.30;100.00;101728.50;4951854;28;20059;-63
2022/07/01 08:54:14;;;;;;;9.15;4.72;;;;;;;18.74;100.00;101722.56;4952098;28;20503;-63
2022/07/01 08:56:40;;;;;;;6.97;4.35;;;;;;;18.62;100.00;101715.19;4929808;28;20463;-64
2022/07/01 08:59:12;;;;;;;11.00;4.90;;;;;;;18.92;100.00;101722.28;4956408;28;20299;-63
2022/07/01 09:01:40;;;;;;;7.50;4.50;;;;;;;19.07;100.00;101716.16;4940486;28;20055;-62
2022/07/01 09:04:16;;;;;;;10.13;3.92;;;;;;;19.29;100.00;101717.13;4955277;28;20105;-62
2022/07/01 09:06:44;;;;;;;8.82;2.90;;;;;;;19.44;100.00;101720.59;4959890;28;20055;-64
2022/07/01 09:09:20;;;;;;;5.93;2.70;;;;;;;19.13;100.00;101726.06;4943721;28;20050;-63
2022/07/01 09:11:54;;;;;;;7.47;2.80;;;;;;;19.45;100.00;101718.78;4956343;28;20511;-64
2022/07/01 09:14:21;;;;;;;7.50;2.75;;;;;;;19.64;100.00;101720.06;4951149;28;20109;-62
2022/07/01 09:16:54;;;;;;;6.00;2.90;;;;;;;19.52;100.00;101722.34;4956042;28;20050;-63
2022/07/01 09:19:22;;;;;;;6.97;2.70;;;;;;;19.49;100.00;101720.06;4955346;28;20531;-62
2022/07/01 09:21:56;;;;;;;7.00;2.38;;;;;;;19.67;100.00;101717.84;4958967;28;20431;-63
2022/07/01 09:24:34;;;;;;;5.13;2.13;;;;;;;19.77;100.00;101714.13;4947839;28;20054;-63
2022/07/01 09:27:16;;;;;;;7.38;2.30;;;;;;;19.69;100.00;101713.16;4953244;28;20232;-62
2022/07/01 09:29:49;;;;;;;6.28;2.40;;;;;;;20.01;100.00;101712.97;4962796;28;20534;-63
2022/07/01 09:32:22;;;;;;;7.35;1.98;;;;;;;20.01;100.00;101715.63;4943967;28;20059;-61
2022/07/01 09:34:53;;;;;;;6.70;2.20;;;;;;;20.43;100.00;101704.22;4962843;28;20058;-63
2022/07/01 09:37:24;;;;;;;4.53;2.00;;;;;;;20.42;100.00;101715.88;4950855;28;20641;-64
2022/07/01 09:39:57;;;;;;;4.72;2.42;;;;;;;20.49;100.00;101721.28;4958361;28;20061;-64
2022/07/01 09:42:27;;;;;;;4.13;2.00;;;;;;;20.71;100.00;101719.44;4959748;28;20043;-63
2022/07/01 09:44:57;;;;;;;7.82;2.58;;;;;;;21.03;100.00;101726.09;4949200;28;20145;-62
2022/07/01 09:47:30;;;;;;;7.90;2.22;;;;;;;21.21;100.00;101725.59;4954903;28;20051;-63
2022/07/01 09:49:57;;;;;;;6.07;1.95;;;;;;;20.93;100.00;101734.44;4947870;28;20054;-63
2022/07/01 09:52:24;;;;;;;7.85;2.20;;;;;;;21.13;99.17;101731.09;4952704;28;20514;-64
2022/07/01 09:54:51;;;;;;;4.50;1.63;;;;;;;21.34;97.88;101740.84;4952927;28;20055;-63
2022/07/01 09:57:19;;;;;;;4.05;1.88;;;;;;;21.35;97.88;101739.03;4962291;28;20069;-64
2022/07/01 09:59:47;;;;;;;6.38;2.25;;;;;;;21.09;97.78;101732.47;4961672;28;20051;-63
2022/07/01 10:02:17;;;;;;;3.72;1.90;;;;;;;20.93;99.20;101738.91;4953834;28;20138;-63
2022/07/01 10:04:51;;;;;;;5.10;1.90;;;;;;;20.92;100.00;101748.75;4953774;28;20055;-63
2022/07/01 10:07:43;;;;;;;4.78;1.60;;;;;;;20.64;99.66;101751.41;4940581;28;20419;-64
2022/07/01 10:10:33;;;;;;;4.38;2.15;;;;;;;20.40;98.69;101744.53;4942217;28;20058;-63
2022/07/01 10:13:05;;;;;;;4.72;1.73;;;;;;;20.59;100.00;101756.47;4951135;28;20087;-63
2022/07/01 10:15:32;;;;;;;4.35;1.75;;;;;;;20.45;99.19;101754.66;4957362;28;20472;-63
2022/07/01 10:17:59;;;;;;;8.15;2.28;;;;;;;20.33;100.00;101755.13;4953327;28;20046;-63
2022/07/01 10:20:27;;;;;;;8.45;2.05;;;;;;;20.47;100.00;101753.44;4951868;28;20054;-61
2022/07/01 10:23:05;;;;;;;6.20;2.05;;;;;;;20.05;99.63;101756.84;4953665;28;20382;-62
2022/07/01 10:25:43;;;;;;;2.42;1.60;;;;;;;20.35;100.00;101760.28;4941337;28;20055;-62
2022/07/01 10:28:15;;;;;;;5.22;2.00;;;;;;;20.62;100.00;101760.56;4960330;28;20047;-63
2022/07/01 10:31:04;;;;;;;4.95;1.50;;;;;;;20.83;99.42;101751.75;4952303;28;20511;-63
2022/07/01 10:33:34;;;;;;;3.35;1.45;;;;;;;20.67;97.09;101756.31;4958048;28;20570;-62
2022/07/01 10:36:08;;;;;;;5.85;1.67;;;;;;;21.11;95.38;101757.09;4943296;28;20047;-63
2022/07/01 10:38:54;;;;;;;4.35;1.40;;;;;;;21.17;97.52;101763.50;4938573;29;20051;-63
2022/07/01 10:41:25;;;;;;;6.20;1.52;;;;;;;20.80;94.81;101755.63;4961716;28;20423;-64
2022/07/01 10:43:53;;;;;;;3.03;1.20;;;;;;;20.82;91.53;101756.28;4958704;28;20050;-61
2022/07/01 10:46:46;;;;;;;3.42;1.30;;;;;;;20.61;94.01;101761.59;4955422;28;20058;-63
2022/07/01 10:49:14;;;;;;;4.13;1.45;;;;;;;21.05;99.71;101749.88;4941241;28;20728;-62
2022/07/01 10:51:57;;;;;;;8.70;1.83;;;;;;;21.28;97.74;101738.97;4962075;28;20394;-64
2022/07/01 10:54:35;;;;;;;4.40;1.60;;;;;;;21.35;96.24;101749.72;4952702;28;20055;-61
2022/07/01 10:57:14;;;;;;;3.95;1.58;;;;;;;21.41;91.95;101747.06;4963020;28;20054;-62
2022/07/01 10:59:42;;;;;;;5.05;1.70;;;;;;;21.34;96.36;101754.19;4941869;28;20367;-62
2022/07/01 11:02:16;;;;;;;3.35;1.60;;;;;;;21.31;93.01;101754.59;4955722;28;20544;-61
2022/07/01 11:04:49;;;;;;;6.22;2.20;;;;;;;21.35;92.29;101757.72;4960224;28;20055;-63
2022/07/01 11:07:16;;;;;;;;;;;;;;;21.68;90.14;101758.75;4962145;28;20145;-63
2022/07/01 11:09:42;;;;;;;4.25;1.80;;;;;;;21.80;90.07;101758.22;4962240;28;19980;-62
2022/07/01 11:12:09;;;;;;;6.88;1.83;;;;;;;21.76;88.64;101759.59;4951982;28;20050;-64
2022/07/01 11:14:40;;;;;;;2.75;1.60;;;;;;;21.59;92.04;101753.78;4948331;28;20046;-63
2022/07/01 11:17:09;;;;;;;4.88;1.75;;;;;;;21.40;92.34;101765.94;4948752;28;20692;-62
2022/07/01 11:19:36;;;;;;;3.40;1.70;;;;;;;20.87;87.60;101764.50;4961561;28;20050;-63
2022/07/01 11:22:05;;;;;;;4.22;1.58;;;;;;;20.96;92.87;101765.22;4956469;28;20057;-62
2022/07/01 11:24:32;;;;;;;6.35;1.60;;;;;;;21.00;89.33;101768.31;4935521;28;20055;-64